RJKA

Details ICAO RJKA (ASJ)
Name AMAMI
Region Japan
Timezone Asia/Tokyo (UTC+9.0)
Plans Departing 12
Arriving 12
Stats Elevation 27 ft / 8 m (AMSL)
Location 28.430635° 129.712543°
Runways 1
Magnetic Variation 5.903° W
Sunrise 2017-12-15 22:07:43 UTC / 2017-12-16 07:07:43 Local
Sunset 2017-12-16 08:28:17 UTC / 2017-12-16 17:28:17 Local
Advertisement - Login to hide

Runways

ID Width Length Bearing (true) Bearing (mag) Surface Threshold Offset Overrun Length
03 150 ft / 46 m 6,576 ft / 2,004 m 25.83° 31.73° Asphalt 0 ft / 0 m 197 ft / 60 m
21 150 ft / 46 m 6,576 ft / 2,004 m 205.84° 211.74° Asphalt 0 ft / 0 m 193 ft / 59 m

Approach Navaids

Runway Type Ident Frequency Range Bearing (true) Bearing (mag) Slope Elevation
03 Localiser IAM 109.30 MHz 18 nm / 33 km 25.82° 31.72° - 31 ft / 9 m (AMSL)
03 Glidescope IAM 109.30 MHz 10 nm / 19 km 25.84° 31.74° 3.00° 31 ft / 9 m (AMSL)
03 DME IAM 109.30 MHz 18 nm / 33 km - - - 31 ft / 9 m (AMSL)

Map

Weather


0- 5 10 15 20 25 30 35+ Temperature / ° C

Clouds and Precipitation
Forecast for 2017-12-16 12:00 UTC. Updated 2 hours ago

Ground ~20,000 ft ~40,000 ft Winds

METAR

RJKA 160900Z 35014KT 9999 -SHRA FEW010 SCT020 BKN035 15/13 Q1020

TAF

Not found

Frequencies

Tower 134.80 MHz NAHA INFO
Tower 118.15 MHz RDO
Tower 126.20 MHz RDO
Warning: Do not use this data for real-world aviation or navigation. No guarantee of current accuracy is given.